Historyczne dane pomiarowe

Dodano dane terminowe – wersja testowa.

Dane z okresu 1951-2019

Wersja bazy: 1.34 [2019-03-16, lista zmian], aktualizacja planowana na 2019-04-15

Dane meteo z obszaru Polski uzyskane na podstawie danych udostępnionych przez Instytut Meteorologii i Gospodarki Wodnej – Państwowy Instytut Badawczy.

 

Wybierz Datę:    

       

TemperaturaWilgotnośćWiatrCiśnienieOpadyŚniegCzas trwania zjawisk
 Stacja t tx tn tng RH VA  wxwx mslp ppp RRR   cm mm wxwxwxwxwxwxwx
1999-08-14 15.5 19.1 12.0- 79.8- 4.0 1.7---- 0.0------------
1999-08-13 14.2 18.0 10.5- 75.0- 5.0 3.0---- 3.9------------
1999-08-12 15.9 20.0 11.7- 68.3- 3.7 2.7---- 0.0------------
1999-08-11 17.5 23.9 13.0- 76.3- 6.3 2.3---- 5.6------------
1999-08-10 18.6 24.0 13.5- 76.5- 6.7 2.3---- 19.9------------
1999-08-09 21.0 30.0 16.1- 69.5- 4.3 4.0---- 0.0------------
1999-08-08 18.3 22.4 15.0- 81.5- 6.7 2.7---- 4.5------------
1999-08-07 18.5 26.9 11.5- 61.5- 3.0 1.0---- 0.0------------
1999-08-06 18.8 27.7 11.8- 64.0- 3.0 1.3---- 0.0------------
1999-08-05 18.1 26.0 8.9- 57.5- 1.3 1.7---- 0.0------------
1999-08-04 17.6 25.0 10.0- 56.0- 2.0 1.0---- 0.0------------
1999-08-03 17.5 25.2 9.0- 52.3- 2.0 1.3---- 0.0------------
1999-08-02 19.5 26.6 13.1- 54.0- 2.0 2.3---- 0.0------------
1999-08-01 19.6 24.5 14.9- 55.8- 2.3 2.0---- 0.0------------
1999-07-31 19.7 26.2 13.1- 60.0- 1.7 2.7---- 0.0------------
1999-07-30 18.6 24.6 12.5- 58.3- 1.7 1.7---- 0.0------------
1999-07-29 18.1 24.5 10.1- 63.5- 1.0 3.7---- 0.0------------
1999-07-28 17.0 22.2 11.9- 62.3- 2.0 3.0---- 0.0------------
1999-07-27 16.1 22.0 10.4- 76.0- 2.7 3.0---- 0.0------------
1999-07-26 16.8 20.8 11.9- 73.8- 3.7 4.3---- 0.0------------
1999-07-25 18.9 24.2 14.8- 77.0- 3.0 2.0---- 0.0------------
1999-07-24 16.5 21.0 12.1- 79.3- 3.7 2.3---- 0.0------------
1999-07-23 17.7 22.0 11.1- 62.0- 4.0 1.7---- 2.9------------
1999-07-22 16.9 22.0 12.1- 63.0- 4.3 2.7---- 0.0------------
1999-07-21 21.2 25.8 16.7- 71.8- 2.7 1.7---- 0.0------------
1999-07-20 21.2 29.6 9.9- 65.3- 2.3 1.0---- 2.5------------
1999-07-19 16.4 24.0 11.4- 72.5- 2.0 4.0---- 0.0------------
1999-07-18 16.4 23.3 9.9- 78.5- 5.0 2.0---- 0.0------------
1999-07-17 15.3 21.6 8.9- 77.8- 5.0 2.0---- 6.0------------
1999-07-16 15.7 20.1 12.1- 75.3- 3.7 5.0---- 0.0------------
1999-07-15 17.3 20.7 14.9- 86.3- 6.0 4.0---- 1.0------------
1999-07-14 21.6 27.7 18.8- 81.0- 4.7 5.3---- 3.7------------
1999-07-13 23.7 29.8 17.4- 61.3- 3.7 3.7---- 0.0------------
1999-07-12 21.7 29.7 13.6- 58.8- 3.0 2.7---- 0.0------------
1999-07-11 22.3 31.1 15.1- 56.0- 1.7 1.7---- 0.0------------
1999-07-10 19.3 25.4 12.1- 54.3- 1.0 2.0---- 0.0------------
1999-07-09 18.9 25.0 14.2- 78.0- 2.0 3.7---- 0.0------------
1999-07-08 17.4 20.7 13.8- 78.5- 6.7 3.0---- 9.6------------
1999-07-07 17.5 21.0 14.9- 90.5- 5.7 2.3---- 0.0------------
1999-07-06 23.6 32.0 18.0- 71.3- 4.0 2.0---- 23.5------------
1999-07-05 23.1 30.4 15.5- 63.3- 2.0 0.7---- 0.0------------
1999-07-04 21.6 30.2 13.5- 78.8- 2.0 3.3---- 0.0------------
1999-07-03 19.1 25.8 10.9- 79.5- 3.3 2.3---- 0.0------------
1999-07-02 17.4 20.8 14.4- 77.8- 5.0 1.3---- 0.0------------
1999-07-01 19.5 27.9 11.9- 76.3- 4.0 2.0---- 0.0------------
1999-06-30 20.0 27.0 11.7- 64.5- 2.7 1.3---- 0.0------------
1999-06-29 19.9 25.0 16.0- 68.8- 2.3 1.7---- 0.0------------
1999-06-28 22.0 30.0 15.5- 70.8- 2.7 2.3---- 3.0------------
1999-06-27 20.3 26.7 13.0- 67.3- 1.7 1.7---- 0.0------------
1999-06-26 14.2 18.6 10.2- 67.5- 2.7 2.0---- 0.0------------
1999-06-25 13.8 17.0 10.1- 74.0- 2.0 2.3---- 0.0------------
1999-06-24 14.4 19.1 10.6- 79.8- 5.0 2.3---- 0.0------------
1999-06-23 12.1 13.4 10.3- 88.3- 5.3 3.0---- 0.0------------
1999-06-22 13.4 15.4 12.3- 87.3- 5.0 3.0---- 0.0------------
1999-06-21 17.8 21.4 15.0- 84.0- 7.3 5.0---- 6.3------------
1999-06-20 19.5 23.8 16.9- 82.3- 5.7 1.3---- 0.0------------
1999-06-19 19.8 27.0 15.1- 83.8- 5.3 1.3---- 5.5------------
1999-06-18 16.4 22.2 10.9- 71.3- 3.3 2.0---- 0.0------------
1999-06-17 17.6 22.2 14.2- 75.5- 5.0 1.7---- 0.0------------
1999-06-16 16.8 21.9 13.1- 81.5- 3.3 1.7---- 0.0------------
221.0 ms

 

Źródłem pochodzenia danych jest Instytut Meteorologii i Gospodarki Wodnej – Państwowy Instytut Badawczy. Dane Instytutu Meteorologii i Gospodarki Wodnej – Państwowego Instytutu Badawczego zostały przetworzone.

Dane źródłowe można odnaleźć na stronie https://dane.imgw.pl